sensor_id;sensor_type;location;lat;lon;timestamp;P1;durP1;ratioP1;P2;durP2;ratioP2
42096;SDS011;27754;45.414;11.084;2022-11-14T00:00:44;22.00;;;15.20;;
42096;SDS011;27754;45.414;11.084;2022-11-14T00:03:29;19.25;;;15.02;;
42096;SDS011;27754;45.414;11.084;2022-11-14T00:06:15;19.67;;;14.30;;
42096;SDS011;27754;45.414;11.084;2022-11-14T00:09:01;19.85;;;15.82;;
42096;SDS011;27754;45.414;11.084;2022-11-14T00:11:46;20.80;;;15.40;;
42096;SDS011;27754;45.414;11.084;2022-11-14T00:14:32;21.42;;;15.85;;
42096;SDS011;27754;45.414;11.084;2022-11-14T00:17:17;21.33;;;15.70;;
42096;SDS011;27754;45.414;11.084;2022-11-14T00:20:04;19.38;;;14.95;;
42096;SDS011;27754;45.414;11.084;2022-11-14T00:22:50;18.52;;;14.80;;
42096;SDS011;27754;45.414;11.084;2022-11-14T00:25:36;21.92;;;15.75;;
42096;SDS011;27754;45.414;11.084;2022-11-14T00:28:21;21.58;;;15.40;;
42096;SDS011;27754;45.414;11.084;2022-11-14T00:31:08;19.92;;;15.32;;
42096;SDS011;27754;45.414;11.084;2022-11-14T00:33:54;18.17;;;14.30;;
42096;SDS011;27754;45.414;11.084;2022-11-14T00:36:39;19.75;;;14.60;;
42096;SDS011;27754;45.414;11.084;2022-11-14T00:39:25;18.60;;;13.40;;
42096;SDS011;27754;45.414;11.084;2022-11-14T00:42:11;21.77;;;15.85;;
42096;SDS011;27754;45.414;11.084;2022-11-14T00:44:56;20.58;;;15.27;;
42096;SDS011;27754;45.414;11.084;2022-11-14T00:47:42;19.00;;;13.73;;
42096;SDS011;27754;45.414;11.084;2022-11-14T00:50:27;18.98;;;14.15;;
42096;SDS011;27754;45.414;11.084;2022-11-14T00:53:13;19.38;;;13.70;;
42096;SDS011;27754;45.414;11.084;2022-11-14T00:55:58;18.33;;;13.90;;
42096;SDS011;27754;45.414;11.084;2022-11-14T00:58:44;19.77;;;14.50;;
42096;SDS011;27754;45.414;11.084;2022-11-14T01:01:29;19.05;;;14.13;;
42096;SDS011;27754;45.414;11.084;2022-11-14T01:04:15;19.33;;;14.40;;
42096;SDS011;27754;45.414;11.084;2022-11-14T01:07:01;18.60;;;14.32;;
42096;SDS011;27754;45.414;11.084;2022-11-14T01:09:46;17.98;;;13.73;;
42096;SDS011;27754;45.414;11.084;2022-11-14T01:12:32;21.10;;;15.48;;
42096;SDS011;27754;45.414;11.084;2022-11-14T01:15:54;20.42;;;15.38;;
42096;SDS011;27754;45.414;11.084;2022-11-14T01:18:43;21.70;;;14.63;;
42096;SDS011;27754;45.414;11.084;2022-11-14T01:21:29;23.58;;;15.45;;
42096;SDS011;27754;45.414;11.084;2022-11-14T01:24:15;22.25;;;15.27;;
42096;SDS011;27754;45.414;11.084;2022-11-14T01:27:00;20.00;;;15.63;;
42096;SDS011;27754;45.414;11.084;2022-11-14T01:29:46;18.95;;;14.38;;
42096;SDS011;27754;45.414;11.084;2022-11-14T01:32:32;21.20;;;14.85;;
42096;SDS011;27754;45.414;11.084;2022-11-14T01:35:17;20.13;;;14.63;;
42096;SDS011;27754;45.414;11.084;2022-11-14T01:38:03;20.30;;;15.05;;
42096;SDS011;27754;45.414;11.084;2022-11-14T01:40:49;22.70;;;15.73;;
42096;SDS011;27754;45.414;11.084;2022-11-14T01:43:36;19.55;;;14.25;;
42096;SDS011;27754;45.414;11.084;2022-11-14T01:49:19;17.80;;;13.35;;
42096;SDS011;27754;45.414;11.084;2022-11-14T01:52:20;20.42;;;14.50;;
42096;SDS011;27754;45.414;11.084;2022-11-14T01:55:15;19.10;;;14.25;;
42096;SDS011;27754;45.414;11.084;2022-11-14T01:58:01;19.02;;;13.90;;
42096;SDS011;27754;45.414;11.084;2022-11-14T02:00:46;19.55;;;13.77;;
42096;SDS011;27754;45.414;11.084;2022-11-14T02:03:32;19.88;;;12.88;;
42096;SDS011;27754;45.414;11.084;2022-11-14T02:06:21;20.33;;;14.10;;
42096;SDS011;27754;45.414;11.084;2022-11-14T02:09:09;19.67;;;14.25;;
42096;SDS011;27754;45.414;11.084;2022-11-14T02:11:55;18.50;;;13.10;;
42096;SDS011;27754;45.414;11.084;2022-11-14T02:14:43;18.02;;;13.25;;
42096;SDS011;27754;45.414;11.084;2022-11-14T02:17:31;17.92;;;12.90;;
42096;SDS011;27754;45.414;11.084;2022-11-14T02:20:17;17.58;;;12.95;;
42096;SDS011;27754;45.414;11.084;2022-11-14T02:23:03;19.10;;;12.95;;
42096;SDS011;27754;45.414;11.084;2022-11-14T02:25:48;17.15;;;12.63;;
42096;SDS011;27754;45.414;11.084;2022-11-14T02:28:34;17.92;;;13.07;;
42096;SDS011;27754;45.414;11.084;2022-11-14T02:31:19;17.27;;;12.38;;
42096;SDS011;27754;45.414;11.084;2022-11-14T02:34:05;16.05;;;12.05;;
42096;SDS011;27754;45.414;11.084;2022-11-14T02:36:51;16.25;;;12.00;;
42096;SDS011;27754;45.414;11.084;2022-11-14T02:39:36;16.75;;;12.00;;
42096;SDS011;27754;45.414;11.084;2022-11-14T02:42:23;16.85;;;12.35;;
42096;SDS011;27754;45.414;11.084;2022-11-14T02:45:09;16.20;;;11.88;;
42096;SDS011;27754;45.414;11.084;2022-11-14T02:47:56;15.60;;;11.48;;
42096;SDS011;27754;45.414;11.084;2022-11-14T02:50:41;16.27;;;12.40;;
42096;SDS011;27754;45.414;11.084;2022-11-14T02:53:27;16.55;;;12.15;;
42096;SDS011;27754;45.414;11.084;2022-11-14T02:56:13;16.38;;;11.73;;
42096;SDS011;27754;45.414;11.084;2022-11-14T02:58:58;17.33;;;12.70;;
42096;SDS011;27754;45.414;11.084;2022-11-14T03:01:44;15.00;;;11.57;;
42096;SDS011;27754;45.414;11.084;2022-11-14T03:04:29;15.07;;;11.88;;
42096;SDS011;27754;45.414;11.084;2022-11-14T03:07:15;15.32;;;10.73;;
42096;SDS011;27754;45.414;11.084;2022-11-14T03:12:46;15.20;;;11.18;;
42096;SDS011;27754;45.414;11.084;2022-11-14T03:15:35;14.80;;;11.48;;
42096;SDS011;27754;45.414;11.084;2022-11-14T03:18:21;15.82;;;11.50;;
42096;SDS011;27754;45.414;11.084;2022-11-14T03:21:08;17.70;;;12.68;;
42096;SDS011;27754;45.414;11.084;2022-11-14T03:23:58;17.40;;;12.23;;
42096;SDS011;27754;45.414;11.084;2022-11-14T03:26:43;17.05;;;11.90;;
42096;SDS011;27754;45.414;11.084;2022-11-14T03:29:29;15.65;;;11.50;;
42096;SDS011;27754;45.414;11.084;2022-11-14T03:32:14;16.75;;;11.80;;
42096;SDS011;27754;45.414;11.084;2022-11-14T03:35:00;16.52;;;12.05;;
42096;SDS011;27754;45.414;11.084;2022-11-14T03:37:45;15.65;;;12.35;;
42096;SDS011;27754;45.414;11.084;2022-11-14T03:40:31;17.27;;;12.60;;
42096;SDS011;27754;45.414;11.084;2022-11-14T03:43:17;19.60;;;13.40;;
42096;SDS011;27754;45.414;11.084;2022-11-14T03:46:03;16.17;;;11.52;;
42096;SDS011;27754;45.414;11.084;2022-11-14T03:48:49;14.93;;;10.32;;
42096;SDS011;27754;45.414;11.084;2022-11-14T03:51:35;16.33;;;11.65;;
42096;SDS011;27754;45.414;11.084;2022-11-14T03:54:20;15.35;;;11.73;;
42096;SDS011;27754;45.414;11.084;2022-11-14T03:57:06;15.55;;;10.70;;
42096;SDS011;27754;45.414;11.084;2022-11-14T03:59:51;17.30;;;10.73;;
42096;SDS011;27754;45.414;11.084;2022-11-14T04:02:37;13.55;;;10.18;;
42096;SDS011;27754;45.414;11.084;2022-11-14T04:05:22;16.98;;;11.85;;
42096;SDS011;27754;45.414;11.084;2022-11-14T04:10:53;14.27;;;9.43;;
42096;SDS011;27754;45.414;11.084;2022-11-14T04:13:39;15.98;;;10.27;;
42096;SDS011;27754;45.414;11.084;2022-11-14T04:16:24;15.70;;;10.75;;
42096;SDS011;27754;45.414;11.084;2022-11-14T04:19:10;13.30;;;9.88;;
42096;SDS011;27754;45.414;11.084;2022-11-14T04:21:55;13.27;;;10.13;;
42096;SDS011;27754;45.414;11.084;2022-11-14T04:24:40;13.48;;;9.80;;
42096;SDS011;27754;45.414;11.084;2022-11-14T04:27:26;14.23;;;10.05;;
42096;SDS011;27754;45.414;11.084;2022-11-14T04:30:12;12.63;;;9.80;;
42096;SDS011;27754;45.414;11.084;2022-11-14T04:32:57;13.48;;;9.45;;
42096;SDS011;27754;45.414;11.084;2022-11-14T04:35:43;13.13;;;10.35;;
42096;SDS011;27754;45.414;11.084;2022-11-14T04:38:28;12.63;;;9.95;;
42096;SDS011;27754;45.414;11.084;2022-11-14T04:43:59;14.20;;;9.82;;
42096;SDS011;27754;45.414;11.084;2022-11-14T04:46:45;13.82;;;9.05;;
42096;SDS011;27754;45.414;11.084;2022-11-14T04:49:31;13.27;;;9.85;;
42096;SDS011;27754;45.414;11.084;2022-11-14T04:52:16;14.13;;;10.35;;
42096;SDS011;27754;45.414;11.084;2022-11-14T04:55:02;15.10;;;10.10;;
42096;SDS011;27754;45.414;11.084;2022-11-14T04:57:51;14.35;;;9.40;;
42096;SDS011;27754;45.414;11.084;2022-11-14T05:00:41;13.43;;;9.70;;
42096;SDS011;27754;45.414;11.084;2022-11-14T05:03:26;14.18;;;9.93;;
42096;SDS011;27754;45.414;11.084;2022-11-14T05:06:12;13.50;;;9.88;;
42096;SDS011;27754;45.414;11.084;2022-11-14T05:08:57;13.10;;;9.20;;
42096;SDS011;27754;45.414;11.084;2022-11-14T05:11:43;15.15;;;8.50;;
42096;SDS011;27754;45.414;11.084;2022-11-14T05:14:28;12.50;;;8.75;;
42096;SDS011;27754;45.414;11.084;2022-11-14T05:17:15;11.07;;;8.40;;
42096;SDS011;27754;45.414;11.084;2022-11-14T05:20:01;11.15;;;8.02;;
42096;SDS011;27754;45.414;11.084;2022-11-14T05:22:47;12.32;;;7.47;;
42096;SDS011;27754;45.414;11.084;2022-11-14T05:25:35;11.75;;;8.13;;
42096;SDS011;27754;45.414;11.084;2022-11-14T05:28:21;11.40;;;8.35;;
42096;SDS011;27754;45.414;11.084;2022-11-14T05:31:10;12.32;;;8.48;;
42096;SDS011;27754;45.414;11.084;2022-11-14T05:33:58;11.93;;;8.57;;
42096;SDS011;27754;45.414;11.084;2022-11-14T05:36:44;11.98;;;8.18;;
42096;SDS011;27754;45.414;11.084;2022-11-14T05:39:30;12.38;;;8.70;;
42096;SDS011;27754;45.414;11.084;2022-11-14T05:42:15;14.35;;;9.63;;
42096;SDS011;27754;45.414;11.084;2022-11-14T05:45:01;12.57;;;8.85;;
42096;SDS011;27754;45.414;11.084;2022-11-14T05:47:46;12.23;;;8.63;;
42096;SDS011;27754;45.414;11.084;2022-11-14T05:50:32;14.13;;;8.85;;
42096;SDS011;27754;45.414;11.084;2022-11-14T05:53:17;14.00;;;9.15;;
42096;SDS011;27754;45.414;11.084;2022-11-14T05:56:03;12.98;;;8.98;;
42096;SDS011;27754;45.414;11.084;2022-11-14T05:58:51;12.60;;;9.10;;
42096;SDS011;27754;45.414;11.084;2022-11-14T06:01:36;12.95;;;9.25;;
42096;SDS011;27754;45.414;11.084;2022-11-14T06:04:22;13.88;;;9.07;;
42096;SDS011;27754;45.414;11.084;2022-11-14T06:07:08;15.45;;;9.77;;
42096;SDS011;27754;45.414;11.084;2022-11-14T06:09:53;14.80;;;9.65;;
42096;SDS011;27754;45.414;11.084;2022-11-14T06:12:39;13.65;;;9.02;;
42096;SDS011;27754;45.414;11.084;2022-11-14T06:15:24;12.40;;;8.18;;
42096;SDS011;27754;45.414;11.084;2022-11-14T06:18:10;13.77;;;9.07;;
42096;SDS011;27754;45.414;11.084;2022-11-14T06:20:59;12.52;;;8.93;;
42096;SDS011;27754;45.414;11.084;2022-11-14T06:23:46;14.00;;;9.35;;
42096;SDS011;27754;45.414;11.084;2022-11-14T06:26:32;14.65;;;9.30;;
42096;SDS011;27754;45.414;11.084;2022-11-14T06:29:18;23.70;;;9.18;;
42096;SDS011;27754;45.414;11.084;2022-11-14T06:32:03;14.18;;;8.95;;
42096;SDS011;27754;45.414;11.084;2022-11-14T06:34:49;14.05;;;9.48;;
42096;SDS011;27754;45.414;11.084;2022-11-14T06:37:35;12.45;;;9.13;;
42096;SDS011;27754;45.414;11.084;2022-11-14T06:40:21;13.30;;;8.20;;
42096;SDS011;27754;45.414;11.084;2022-11-14T06:43:06;13.75;;;8.98;;
42096;SDS011;27754;45.414;11.084;2022-11-14T06:45:53;13.63;;;7.72;;
42096;SDS011;27754;45.414;11.084;2022-11-14T06:48:39;12.50;;;8.52;;
42096;SDS011;27754;45.414;11.084;2022-11-14T06:51:25;10.35;;;7.80;;
42096;SDS011;27754;45.414;11.084;2022-11-14T06:54:11;12.57;;;8.70;;
42096;SDS011;27754;45.414;11.084;2022-11-14T06:56:57;9.73;;;7.53;;
42096;SDS011;27754;45.414;11.084;2022-11-14T06:59:42;11.30;;;7.55;;
42096;SDS011;27754;45.414;11.084;2022-11-14T07:02:28;16.08;;;9.60;;
42096;SDS011;27754;45.414;11.084;2022-11-14T07:05:14;16.45;;;9.70;;
42096;SDS011;27754;45.414;11.084;2022-11-14T07:07:59;11.55;;;8.93;;
42096;SDS011;27754;45.414;11.084;2022-11-14T07:10:45;15.85;;;9.52;;
42096;SDS011;27754;45.414;11.084;2022-11-14T07:13:31;14.77;;;10.13;;
42096;SDS011;27754;45.414;11.084;2022-11-14T07:16:18;15.32;;;9.95;;
42096;SDS011;27754;45.414;11.084;2022-11-14T07:19:05;15.65;;;10.88;;
42096;SDS011;27754;45.414;11.084;2022-11-14T07:21:52;12.20;;;9.38;;
42096;SDS011;27754;45.414;11.084;2022-11-14T07:24:38;21.42;;;10.73;;
42096;SDS011;27754;45.414;11.084;2022-11-14T07:27:23;25.33;;;11.55;;
42096;SDS011;27754;45.414;11.084;2022-11-14T07:30:09;16.92;;;10.18;;
42096;SDS011;27754;45.414;11.084;2022-11-14T07:35:41;14.50;;;9.85;;
42096;SDS011;27754;45.414;11.084;2022-11-14T07:38:28;17.70;;;11.85;;
42096;SDS011;27754;45.414;11.084;2022-11-14T07:41:16;13.98;;;9.70;;
42096;SDS011;27754;45.414;11.084;2022-11-14T07:44:02;176.20;;;25.25;;
42096;SDS011;27754;45.414;11.084;2022-11-14T07:46:47;93.53;;;18.77;;
42096;SDS011;27754;45.414;11.084;2022-11-14T07:52:19;32.75;;;15.77;;
42096;SDS011;27754;45.414;11.084;2022-11-14T07:55:04;21.15;;;12.13;;
42096;SDS011;27754;45.414;11.084;2022-11-14T07:57:53;16.45;;;12.45;;
42096;SDS011;27754;45.414;11.084;2022-11-14T08:00:42;17.17;;;11.45;;
42096;SDS011;27754;45.414;11.084;2022-11-14T08:03:28;16.38;;;10.25;;
42096;SDS011;27754;45.414;11.084;2022-11-14T08:06:14;17.27;;;11.82;;
42096;SDS011;27754;45.414;11.084;2022-11-14T08:09:00;16.25;;;12.45;;
42096;SDS011;27754;45.414;11.084;2022-11-14T08:11:45;17.42;;;12.15;;
42096;SDS011;27754;45.414;11.084;2022-11-14T08:14:33;20.67;;;12.70;;
42096;SDS011;27754;45.414;11.084;2022-11-14T08:17:19;17.60;;;12.02;;
42096;SDS011;27754;45.414;11.084;2022-11-14T08:20:06;16.83;;;12.23;;
42096;SDS011;27754;45.414;11.084;2022-11-14T08:22:53;16.55;;;11.43;;
42096;SDS011;27754;45.414;11.084;2022-11-14T08:25:45;18.13;;;11.38;;
42096;SDS011;27754;45.414;11.084;2022-11-14T08:28:30;16.52;;;11.07;;
42096;SDS011;27754;45.414;11.084;2022-11-14T08:31:16;16.70;;;12.00;;
42096;SDS011;27754;45.414;11.084;2022-11-14T08:34:02;16.73;;;11.80;;
42096;SDS011;27754;45.414;11.084;2022-11-14T08:36:48;16.15;;;11.98;;
42096;SDS011;27754;45.414;11.084;2022-11-14T08:39:33;18.98;;;11.98;;
42096;SDS011;27754;45.414;11.084;2022-11-14T08:42:18;18.13;;;11.68;;
42096;SDS011;27754;45.414;11.084;2022-11-14T08:45:04;15.82;;;11.15;;
42096;SDS011;27754;45.414;11.084;2022-11-14T08:47:50;16.30;;;11.07;;
42096;SDS011;27754;45.414;11.084;2022-11-14T08:50:36;18.58;;;11.63;;
42096;SDS011;27754;45.414;11.084;2022-11-14T08:53:22;13.68;;;10.45;;
42096;SDS011;27754;45.414;11.084;2022-11-14T08:56:11;17.48;;;11.75;;
42096;SDS011;27754;45.414;11.084;2022-11-14T08:58:56;15.93;;;12.00;;
42096;SDS011;27754;45.414;11.084;2022-11-14T09:01:42;17.13;;;12.15;;
42096;SDS011;27754;45.414;11.084;2022-11-14T09:04:27;17.05;;;11.63;;
42096;SDS011;27754;45.414;11.084;2022-11-14T09:07:13;15.88;;;11.65;;
42096;SDS011;27754;45.414;11.084;2022-11-14T09:09:59;18.70;;;13.57;;
42096;SDS011;27754;45.414;11.084;2022-11-14T09:12:44;19.45;;;12.18;;
42096;SDS011;27754;45.414;11.084;2022-11-14T09:15:30;14.80;;;11.48;;
42096;SDS011;27754;45.414;11.084;2022-11-14T09:18:17;17.38;;;12.48;;
42096;SDS011;27754;45.414;11.084;2022-11-14T09:21:04;17.95;;;11.60;;
42096;SDS011;27754;45.414;11.084;2022-11-14T09:23:50;16.38;;;11.07;;
42096;SDS011;27754;45.414;11.084;2022-11-14T09:26:42;15.13;;;10.93;;
42096;SDS011;27754;45.414;11.084;2022-11-14T09:29:28;15.55;;;10.95;;
42096;SDS011;27754;45.414;11.084;2022-11-14T09:32:13;18.13;;;11.18;;
42096;SDS011;27754;45.414;11.084;2022-11-14T09:34:59;17.48;;;11.35;;
42096;SDS011;27754;45.414;11.084;2022-11-14T09:37:44;15.25;;;11.43;;
42096;SDS011;27754;45.414;11.084;2022-11-14T09:40:30;16.35;;;11.35;;
42096;SDS011;27754;45.414;11.084;2022-11-14T09:43:45;17.50;;;11.82;;
42096;SDS011;27754;45.414;11.084;2022-11-14T09:46:52;17.17;;;11.88;;
42096;SDS011;27754;45.414;11.084;2022-11-14T09:49:43;17.83;;;10.95;;
42096;SDS011;27754;45.414;11.084;2022-11-14T09:52:34;17.65;;;9.52;;
42096;SDS011;27754;45.414;11.084;2022-11-14T09:55:23;20.38;;;11.38;;
42096;SDS011;27754;45.414;11.084;2022-11-14T09:58:20;22.17;;;12.40;;
42096;SDS011;27754;45.414;11.084;2022-11-14T10:07:43;22.83;;;13.15;;
42096;SDS011;27754;45.414;11.084;2022-11-14T10:10:35;19.98;;;10.60;;
42096;SDS011;27754;45.414;11.084;2022-11-14T10:26:30;12.20;;;8.50;;
42096;SDS011;27754;45.414;11.084;2022-11-14T10:29:32;12.23;;;8.73;;
42096;SDS011;27754;45.414;11.084;2022-11-14T10:32:28;14.77;;;8.80;;
42096;SDS011;27754;45.414;11.084;2022-11-14T10:38:38;14.40;;;8.35;;
42096;SDS011;27754;45.414;11.084;2022-11-14T10:41:32;14.43;;;7.22;;
42096;SDS011;27754;45.414;11.084;2022-11-14T10:47:42;9.98;;;5.95;;
42096;SDS011;27754;45.414;11.084;2022-11-14T10:53:42;8.93;;;7.15;;
42096;SDS011;27754;45.414;11.084;2022-11-14T10:56:30;13.20;;;8.40;;
42096;SDS011;27754;45.414;11.084;2022-11-14T10:59:15;13.27;;;8.63;;
42096;SDS011;27754;45.414;11.084;2022-11-14T11:02:01;11.85;;;8.25;;
42096;SDS011;27754;45.414;11.084;2022-11-14T11:04:46;14.07;;;9.10;;
42096;SDS011;27754;45.414;11.084;2022-11-14T11:07:32;15.75;;;9.63;;
42096;SDS011;27754;45.414;11.084;2022-11-14T11:11:14;12.93;;;8.13;;
42096;SDS011;27754;45.414;11.084;2022-11-14T11:14:16;13.70;;;7.43;;
42096;SDS011;27754;45.414;11.084;2022-11-14T11:17:21;11.23;;;7.35;;
42096;SDS011;27754;45.414;11.084;2022-11-14T11:20:29;10.60;;;7.60;;
42096;SDS011;27754;45.414;11.084;2022-11-14T11:23:25;11.00;;;6.75;;
42096;SDS011;27754;45.414;11.084;2022-11-14T11:26:19;11.33;;;8.07;;
42096;SDS011;27754;45.414;11.084;2022-11-14T11:31:56;13.65;;;7.75;;
42096;SDS011;27754;45.414;11.084;2022-11-14T11:34:42;11.95;;;7.30;;
42096;SDS011;27754;45.414;11.084;2022-11-14T11:40:21;12.45;;;8.13;;
42096;SDS011;27754;45.414;11.084;2022-11-14T11:43:21;12.68;;;7.45;;
42096;SDS011;27754;45.414;11.084;2022-11-14T11:46:25;11.63;;;7.93;;
42096;SDS011;27754;45.414;11.084;2022-11-14T11:55:17;12.32;;;8.00;;
42096;SDS011;27754;45.414;11.084;2022-11-14T11:58:19;8.82;;;6.47;;
42096;SDS011;27754;45.414;11.084;2022-11-14T12:01:20;11.55;;;7.45;;
42096;SDS011;27754;45.414;11.084;2022-11-14T12:04:06;9.98;;;6.82;;
42096;SDS011;27754;45.414;11.084;2022-11-14T12:06:57;12.05;;;7.50;;
42096;SDS011;27754;45.414;11.084;2022-11-14T12:09:51;10.38;;;6.68;;
42096;SDS011;27754;45.414;11.084;2022-11-14T12:16:22;11.35;;;6.88;;
42096;SDS011;27754;45.414;11.084;2022-11-14T12:32:10;9.65;;;6.55;;
42096;SDS011;27754;45.414;11.084;2022-11-14T12:35:02;8.18;;;6.25;;
42096;SDS011;27754;45.414;11.084;2022-11-14T12:37:50;8.98;;;5.88;;
42096;SDS011;27754;45.414;11.084;2022-11-14T12:40:41;8.88;;;6.43;;
42096;SDS011;27754;45.414;11.084;2022-11-14T12:43:36;6.88;;;5.45;;
42096;SDS011;27754;45.414;11.084;2022-11-14T12:46:23;7.00;;;5.90;;
42096;SDS011;27754;45.414;11.084;2022-11-14T12:58:27;7.50;;;5.13;;
42096;SDS011;27754;45.414;11.084;2022-11-14T13:01:36;10.25;;;4.95;;
42096;SDS011;27754;45.414;11.084;2022-11-14T13:07:58;10.93;;;8.98;;
42096;SDS011;27754;45.414;11.084;2022-11-14T13:10:56;7.28;;;5.75;;
42096;SDS011;27754;45.414;11.084;2022-11-14T13:13:57;8.50;;;5.70;;
42096;SDS011;27754;45.414;11.084;2022-11-14T13:20:32;9.07;;;6.28;;
42096;SDS011;27754;45.414;11.084;2022-11-14T13:35:39;12.20;;;7.38;;
42096;SDS011;27754;45.414;11.084;2022-11-14T13:51:19;11.77;;;8.40;;
42096;SDS011;27754;45.414;11.084;2022-11-14T13:54:28;10.07;;;7.45;;
42096;SDS011;27754;45.414;11.084;2022-11-14T14:00:21;11.43;;;7.40;;
42096;SDS011;27754;45.414;11.084;2022-11-14T14:06:27;11.05;;;7.30;;
42096;SDS011;27754;45.414;11.084;2022-11-14T14:13:19;11.95;;;7.75;;
42096;SDS011;27754;45.414;11.084;2022-11-14T14:15:43;8.98;;;6.85;;
42096;SDS011;27754;45.414;11.084;2022-11-14T14:18:57;11.05;;;7.22;;
42096;SDS011;27754;45.414;11.084;2022-11-14T14:22:00;11.45;;;7.03;;
42096;SDS011;27754;45.414;11.084;2022-11-14T14:25:14;10.93;;;7.65;;
42096;SDS011;27754;45.414;11.084;2022-11-14T14:28:13;11.45;;;8.45;;
42096;SDS011;27754;45.414;11.084;2022-11-14T14:31:16;10.98;;;6.93;;
42096;SDS011;27754;45.414;11.084;2022-11-14T14:34:28;10.98;;;7.57;;
42096;SDS011;27754;45.414;11.084;2022-11-14T14:40:06;9.65;;;6.90;;
42096;SDS011;27754;45.414;11.084;2022-11-14T14:43:05;9.63;;;6.95;;
42096;SDS011;27754;45.414;11.084;2022-11-14T14:45:52;10.98;;;7.95;;
42096;SDS011;27754;45.414;11.084;2022-11-14T14:48:39;12.05;;;7.80;;
42096;SDS011;27754;45.414;11.084;2022-11-14T14:51:32;9.57;;;6.95;;
42096;SDS011;27754;45.414;11.084;2022-11-14T14:54:23;11.77;;;7.05;;
42096;SDS011;27754;45.414;11.084;2022-11-14T14:57:15;10.48;;;8.10;;
42096;SDS011;27754;45.414;11.084;2022-11-14T15:00:15;13.13;;;7.78;;
42096;SDS011;27754;45.414;11.084;2022-11-14T15:03:08;11.88;;;7.80;;
42096;SDS011;27754;45.414;11.084;2022-11-14T15:06:01;12.75;;;8.02;;
42096;SDS011;27754;45.414;11.084;2022-11-14T15:08:48;11.93;;;7.40;;
42096;SDS011;27754;45.414;11.084;2022-11-14T15:11:34;11.25;;;8.70;;
42096;SDS011;27754;45.414;11.084;2022-11-14T15:14:24;12.27;;;8.68;;
42096;SDS011;27754;45.414;11.084;2022-11-14T15:17:20;12.50;;;8.65;;
42096;SDS011;27754;45.414;11.084;2022-11-14T15:20:16;11.88;;;8.00;;
42096;SDS011;27754;45.414;11.084;2022-11-14T15:26:01;19.23;;;11.15;;
42096;SDS011;27754;45.414;11.084;2022-11-14T15:28:48;10.98;;;7.45;;
42096;SDS011;27754;45.414;11.084;2022-11-14T15:31:33;8.43;;;5.90;;
42096;SDS011;27754;45.414;11.084;2022-11-14T15:34:24;10.65;;;6.80;;
42096;SDS011;27754;45.414;11.084;2022-11-14T15:46:27;7.78;;;5.70;;
42096;SDS011;27754;45.414;11.084;2022-11-14T15:49:21;8.45;;;5.93;;
42096;SDS011;27754;45.414;11.084;2022-11-14T15:52:16;11.38;;;7.07;;
42096;SDS011;27754;45.414;11.084;2022-11-14T15:55:13;12.77;;;8.60;;
42096;SDS011;27754;45.414;11.084;2022-11-14T15:57:58;13.57;;;10.15;;
42096;SDS011;27754;45.414;11.084;2022-11-14T16:01:04;16.25;;;12.07;;
42096;SDS011;27754;45.414;11.084;2022-11-14T16:03:57;20.05;;;12.07;;
42096;SDS011;27754;45.414;11.084;2022-11-14T16:06:42;15.88;;;11.98;;
42096;SDS011;27754;45.414;11.084;2022-11-14T16:09:29;20.00;;;12.27;;
42096;SDS011;27754;45.414;11.084;2022-11-14T16:12:15;20.15;;;12.93;;
42096;SDS011;27754;45.414;11.084;2022-11-14T16:15:01;16.05;;;11.27;;
42096;SDS011;27754;45.414;11.084;2022-11-14T16:17:47;20.10;;;12.38;;
42096;SDS011;27754;45.414;11.084;2022-11-14T16:20:33;20.05;;;13.38;;
42096;SDS011;27754;45.414;11.084;2022-11-14T16:23:21;24.15;;;15.82;;
42096;SDS011;27754;45.414;11.084;2022-11-14T16:26:07;29.98;;;17.92;;
42096;SDS011;27754;45.414;11.084;2022-11-14T16:28:52;32.75;;;20.00;;
42096;SDS011;27754;45.414;11.084;2022-11-14T16:31:38;27.88;;;20.88;;
42096;SDS011;27754;45.414;11.084;2022-11-14T16:37:11;28.75;;;21.90;;
42096;SDS011;27754;45.414;11.084;2022-11-14T16:39:58;26.10;;;18.10;;
42096;SDS011;27754;45.414;11.084;2022-11-14T16:42:46;29.27;;;18.80;;
42096;SDS011;27754;45.414;11.084;2022-11-14T16:45:32;32.83;;;20.17;;
42096;SDS011;27754;45.414;11.084;2022-11-14T16:48:25;29.98;;;20.67;;
42096;SDS011;27754;45.414;11.084;2022-11-14T16:51:10;32.08;;;22.05;;
42096;SDS011;27754;45.414;11.084;2022-11-14T16:54:17;30.92;;;21.60;;
42096;SDS011;27754;45.414;11.084;2022-11-14T16:57:04;33.58;;;22.50;;
42096;SDS011;27754;45.414;11.084;2022-11-14T16:59:49;32.42;;;21.70;;
42096;SDS011;27754;45.414;11.084;2022-11-14T17:02:35;30.27;;;23.42;;
42096;SDS011;27754;45.414;11.084;2022-11-14T17:05:20;33.03;;;23.48;;
42096;SDS011;27754;45.414;11.084;2022-11-14T17:08:06;29.80;;;21.38;;
42096;SDS011;27754;45.414;11.084;2022-11-14T17:10:51;36.30;;;23.67;;
42096;SDS011;27754;45.414;11.084;2022-11-14T17:13:37;34.10;;;24.00;;
42096;SDS011;27754;45.414;11.084;2022-11-14T17:16:23;31.20;;;22.30;;
42096;SDS011;27754;45.414;11.084;2022-11-14T17:19:08;35.88;;;24.05;;
42096;SDS011;27754;45.414;11.084;2022-11-14T17:21:54;37.58;;;26.67;;
42096;SDS011;27754;45.414;11.084;2022-11-14T17:24:39;44.30;;;32.35;;
42096;SDS011;27754;45.414;11.084;2022-11-14T17:27:25;46.10;;;33.15;;
42096;SDS011;27754;45.414;11.084;2022-11-14T17:30:11;47.25;;;35.83;;
42096;SDS011;27754;45.414;11.084;2022-11-14T17:32:57;43.72;;;31.63;;
42096;SDS011;27754;45.414;11.084;2022-11-14T17:35:42;49.42;;;34.17;;
42096;SDS011;27754;45.414;11.084;2022-11-14T17:38:30;40.90;;;28.63;;
42096;SDS011;27754;45.414;11.084;2022-11-14T17:41:16;43.13;;;29.35;;
42096;SDS011;27754;45.414;11.084;2022-11-14T17:44:01;42.55;;;29.60;;
42096;SDS011;27754;45.414;11.084;2022-11-14T17:46:47;38.85;;;27.13;;
42096;SDS011;27754;45.414;11.084;2022-11-14T17:49:33;39.50;;;25.05;;
42096;SDS011;27754;45.414;11.084;2022-11-14T17:52:18;38.58;;;26.40;;
42096;SDS011;27754;45.414;11.084;2022-11-14T17:55:04;35.42;;;25.50;;
42096;SDS011;27754;45.414;11.084;2022-11-14T17:57:49;35.45;;;25.33;;
42096;SDS011;27754;45.414;11.084;2022-11-14T18:00:35;42.65;;;28.27;;
42096;SDS011;27754;45.414;11.084;2022-11-14T18:03:20;43.40;;;30.17;;
42096;SDS011;27754;45.414;11.084;2022-11-14T18:06:07;40.05;;;29.52;;
42096;SDS011;27754;45.414;11.084;2022-11-14T18:08:53;41.80;;;29.92;;
42096;SDS011;27754;45.414;11.084;2022-11-14T18:14:24;41.08;;;28.23;;
42096;SDS011;27754;45.414;11.084;2022-11-14T18:17:10;40.17;;;28.45;;
42096;SDS011;27754;45.414;11.084;2022-11-14T18:19:57;42.50;;;30.13;;
42096;SDS011;27754;45.414;11.084;2022-11-14T18:22:45;39.60;;;28.48;;
42096;SDS011;27754;45.414;11.084;2022-11-14T18:25:31;46.97;;;30.60;;
42096;SDS011;27754;45.414;11.084;2022-11-14T18:28:16;44.08;;;30.17;;
42096;SDS011;27754;45.414;11.084;2022-11-14T18:31:02;40.42;;;29.27;;
42096;SDS011;27754;45.414;11.084;2022-11-14T18:33:48;40.83;;;29.60;;
42096;SDS011;27754;45.414;11.084;2022-11-14T18:36:34;43.45;;;29.35;;
42096;SDS011;27754;45.414;11.084;2022-11-14T18:39:19;38.58;;;27.92;;
42096;SDS011;27754;45.414;11.084;2022-11-14T18:42:05;40.90;;;28.92;;